Time;durP1;ratioP1;P1;durP2;ratioP2;P2;SDS_P1;SDS_P2;PMS_P1;PMS_P2;Temp;Humidity;BMP_temperature;BMP_pressure;BME280_temperature;BME280_humidity;BME280_pressure;Samples;Min_cycle;Max_cycle;Signal;HPM_P1;HPM_P2
2022/12/27 00:02:19;;;;;;;12.50;2.85;;;3.20;99.90;;;;;;4915507;29;20051;-73
2022/12/27 00:04:45;;;;;;;11.75;2.60;;;3.30;99.90;;;;;;4915083;29;20055;-73
2022/12/27 00:07:11;;;;;;;10.80;2.90;;;3.30;99.90;;;;;;4898589;29;20512;-73
2022/12/27 00:09:36;;;;;;;13.57;3.00;;;3.30;99.90;;;;;;4919109;29;20047;-73
2022/12/27 00:12:02;;;;;;;9.32;2.65;;;3.30;99.90;;;;;;4918112;29;20468;-73
2022/12/27 00:14:28;;;;;;;12.55;3.13;;;3.30;99.90;;;;;;4903812;29;20047;-73
2022/12/27 00:16:54;;;;;;;13.30;2.63;;;4.50;99.90;;;;;;4919046;29;20100;-73
2022/12/27 00:19:19;;;;;;;10.95;2.72;;;3.20;99.90;;;;;;4916259;29;20044;-73
2022/12/27 00:21:45;;;;;;;13.05;3.08;;;3.90;99.90;;;;;;4929103;29;20091;-73
2022/12/27 00:24:11;;;;;;;8.70;2.75;;;3.30;99.90;;;;;;4914777;29;20553;-73
2022/12/27 00:26:38;;;;;;;11.48;2.90;;;3.40;99.90;;;;;;4895484;29;20056;-73
2022/12/27 00:29:04;;;;;;;15.90;2.90;;;3.40;99.90;;;;;;4909330;29;20565;-73
2022/12/27 00:31:30;;;;;;;10.65;2.58;;;4.10;99.90;;;;;;4918448;29;20095;-73
2022/12/27 00:33:58;;;;;;;10.60;2.45;;;3.30;99.90;;;;;;4929005;29;20052;-73
2022/12/27 00:36:26;;;;;;;11.45;2.85;;;3.30;99.90;;;;;;4919013;29;20044;-74
2022/12/27 00:38:53;;;;;;;11.05;2.42;;;3.30;99.90;;;;;;4917991;29;20437;-73
2022/12/27 00:41:19;;;;;;;11.98;2.72;;;3.30;99.90;;;;;;4911141;29;20054;-73
2022/12/27 00:43:45;;;;;;;9.30;2.50;;;3.40;99.90;;;;;;4901716;29;20073;-73
2022/12/27 00:46:11;;;;;;;9.30;2.78;;;4.50;99.90;;;;;;4919669;29;20052;-73
2022/12/27 00:48:37;;;;;;;11.10;2.83;;;3.30;99.90;;;;;;4919342;29;20044;-73
2022/12/27 00:51:12;;;;;;;10.55;2.70;;;3.70;99.90;;;;;;4912864;29;20438;-73
2022/12/27 00:53:38;;;;;;;11.20;2.90;;;3.30;99.90;;;;;;4917813;29;20111;-73
2022/12/27 00:56:10;;;;;;;11.55;2.78;;;3.40;99.90;;;;;;4915301;29;20040;-73
2022/12/27 00:58:36;;;;;;;12.07;2.90;;;3.30;99.90;;;;;;4922452;29;20064;-73
2022/12/27 01:01:12;;;;;;;12.52;2.90;;;3.40;99.90;;;;;;4926963;29;20079;-73
2022/12/27 01:03:38;;;;;;;10.07;2.90;;;3.40;99.90;;;;;;4931363;29;20076;-73
2022/12/27 01:06:11;;;;;;;13.00;3.20;;;3.40;99.90;;;;;;4915105;29;20052;-74
2022/12/27 01:08:37;;;;;;;14.88;3.20;;;3.40;99.90;;;;;;4915963;29;20051;-73
2022/12/27 01:11:04;;;;;;;13.02;3.35;;;3.30;99.90;;;;;;4918366;29;20052;-73
2022/12/27 01:13:31;;;;;;;12.57;3.20;;;3.30;99.90;;;;;;4901629;29;20052;-73
2022/12/27 01:15:57;;;;;;;12.02;2.88;;;3.30;99.90;;;;;;4915178;29;20058;-73
2022/12/27 01:18:22;;;;;;;13.90;3.70;;;3.30;99.90;;;;;;4913634;29;20052;-73
2022/12/27 01:20:48;;;;;;;9.80;3.15;;;3.30;99.90;;;;;;4914313;29;20167;-73
2022/12/27 01:23:14;;;;;;;14.23;3.28;;;3.30;99.90;;;;;;4910897;29;20052;-73
2022/12/27 01:25:39;;;;;;;10.73;2.75;;;3.20;99.90;;;;;;4933832;29;20382;-73
2022/12/27 01:28:05;;;;;;;11.07;3.28;;;3.20;99.90;;;;;;4933139;29;20075;-73
2022/12/27 01:30:31;;;;;;;12.07;3.60;;;3.20;99.90;;;;;;4917505;29;20119;-73
2022/12/27 01:32:57;;;;;;;14.95;3.28;;;3.10;99.90;;;;;;4918632;29;20050;-73
2022/12/27 01:35:23;;;;;;;10.80;2.97;;;3.10;99.90;;;;;;4884721;29;20052;-73
2022/12/27 01:37:48;;;;;;;11.00;2.90;;;3.10;99.90;;;;;;4917101;29;20135;-73
2022/12/27 01:40:14;;;;;;;12.77;3.45;;;3.10;99.90;;;;;;4914610;29;20048;-74
2022/12/27 01:42:52;;;;;;;12.27;3.70;;;3.10;99.90;;;;;;4912530;29;20052;-74
2022/12/27 01:45:22;;;;;;;11.55;3.33;;;4.00;99.90;;;;;;4902000;29;20075;-73
2022/12/27 01:47:54;;;;;;;13.50;3.55;;;3.10;99.90;;;;;;4929643;29;20045;-73
2022/12/27 01:50:31;;;;;;;13.38;2.85;;;3.10;99.90;;;;;;4904940;29;20056;-73
2022/12/27 01:53:03;;;;;;;11.13;3.67;;;3.10;99.90;;;;;;4911455;29;20092;-74
2022/12/27 01:55:41;;;;;;;12.25;3.70;;;3.10;99.90;;;;;;4914650;29;20052;-73
2022/12/27 01:58:29;;;;;;;11.77;3.50;;;3.00;99.90;;;;;;4914342;29;20190;-74
2022/12/27 02:00:56;;;;;;;11.18;3.67;;;3.00;99.90;;;;;;4914180;29;20143;-73
2022/12/27 02:03:39;;;;;;;14.75;3.58;;;3.10;99.90;;;;;;4917263;29;20111;-73
2022/12/27 02:06:07;;;;;;;10.68;3.28;;;3.10;99.90;;;;;;4917216;29;20186;-74
2022/12/27 02:08:54;;;;;;;12.50;3.88;;;3.10;99.90;;;;;;4915839;29;20111;-73
2022/12/27 02:14:17;;;;;;;14.23;3.83;;;3.00;99.90;;;;;;4916680;29;20067;-74
2022/12/27 02:16:43;;;;;;;12.07;3.90;;;3.00;99.90;;;;;;4911133;29;20063;-73
2022/12/27 02:19:35;;;;;;;13.40;3.92;;;3.00;99.90;;;;;;4898073;29;20044;-73
2022/12/27 02:22:01;;;;;;;;;;;3.00;99.90;;;;;;4913499;29;20493;-73
2022/12/27 02:24:40;;;;;;;12.10;3.50;;;3.00;99.90;;;;;;4908417;29;19930;-73
2022/12/27 02:27:21;;;;;;;15.02;4.10;;;3.00;99.90;;;;;;4905156;29;20091;-74
2022/12/27 02:29:56;;;;;;;12.48;4.05;;;3.10;99.90;;;;;;4904265;29;20064;-73
2022/12/27 02:32:40;;;;;;;12.77;3.95;;;3.10;99.90;;;;;;4926779;29;20067;-74
2022/12/27 02:35:18;;;;;;;15.52;4.10;;;3.20;99.90;;;;;;4901127;29;20087;-75
2022/12/27 02:37:49;;;;;;;15.00;4.30;;;3.30;99.90;;;;;;4915791;29;20056;-74
2022/12/27 02:55:30;;;;;;;13.55;4.72;;;3.20;99.90;;;;;;4916648;29;20056;-74
2022/12/27 02:58:13;;;;;;;14.32;4.47;;;3.20;99.90;;;;;;4915668;29;20568;-74
2022/12/27 03:03:55;;;;;;;16.58;5.20;;;3.10;99.90;;;;;;4917424;29;20071;-74
2022/12/27 03:06:39;;;;;;;16.20;4.78;;;3.10;99.90;;;;;;4898487;29;20044;-74
2022/12/27 03:15:55;;;;;;;15.20;4.68;;;3.20;99.90;;;;;;4906637;29;20132;-74
2022/12/27 03:18:26;;;;;;;17.65;4.72;;;3.20;99.90;;;;;;4931612;29;20098;-73
2022/12/27 03:26:30;;;;;;;14.85;4.70;;;3.30;99.90;;;;;;4915926;29;20515;-73
2022/12/27 03:34:38;;;;;;;16.58;4.90;;;3.40;99.90;;;;;;4914356;29;20060;-74
2022/12/27 03:40:08;;;;;;;15.65;4.10;;;3.40;99.90;;;;;;4912788;29;20096;-74
2022/12/27 03:48:21;;;;;;;14.10;3.78;;;3.50;99.90;;;;;;4915244;29;20087;-73
2022/12/27 03:50:55;;;;;;;13.53;3.33;;;3.50;99.90;;;;;;4913131;29;20131;-73
2022/12/27 03:53:36;;;;;;;14.65;3.33;;;3.60;99.90;;;;;;4928155;29;20315;-73
2022/12/27 03:56:04;;;;;;;11.07;3.00;;;4.00;99.90;;;;;;4910052;29;20098;-73
2022/12/27 03:58:30;;;;;;;14.98;3.03;;;3.70;99.90;;;;;;4916114;29;20052;-73
2022/12/27 04:00:55;;;;;;;13.93;3.40;;;3.80;99.90;;;;;;4915805;29;20060;-73
2022/12/27 04:03:21;;;;;;;14.55;3.10;;;3.80;99.90;;;;;;4915330;29;20135;-74
2022/12/27 04:05:47;;;;;;;15.85;3.35;;;3.80;99.90;;;;;;4899773;29;20040;-74
2022/12/27 04:35:35;;;;;;;13.63;2.95;;;3.70;99.90;;;;;;4915289;29;20091;-74
2022/12/27 04:38:00;;;;;;;11.88;3.35;;;3.70;99.90;;;;;;4914476;29;20084;-74
2022/12/27 04:57:06;;;;;;;11.23;2.80;;;3.80;99.90;;;;;;4917726;29;20112;-74
2022/12/27 05:02:17;;;;;;;15.15;3.10;;;3.90;99.90;;;;;;4914548;29;20122;-74
2022/12/27 05:04:45;;;;;;;15.70;3.25;;;3.80;99.90;;;;;;4918726;29;20081;-73
2022/12/27 05:15:27;;;;;;;12.48;2.95;;;3.80;99.90;;;;;;4918030;29;20188;-73
2022/12/27 05:17:56;;;;;;;11.93;3.13;;;3.90;99.90;;;;;;4917367;29;20131;-74
2022/12/27 05:20:22;;;;;;;13.70;3.17;;;3.80;99.90;;;;;;4886928;29;20055;-73
2022/12/27 05:25:35;;;;;;;11.52;3.30;;;3.90;99.90;;;;;;4905379;29;20405;-74
2022/12/27 05:28:04;;;;;;;16.83;3.50;;;4.00;99.90;;;;;;4913476;29;20067;-74
2022/12/27 05:30:32;;;;;;;11.23;3.50;;;4.00;99.90;;;;;;4904692;29;20080;-74
2022/12/27 05:32:58;;;;;;;14.75;3.47;;;4.00;99.90;;;;;;4901720;29;20507;-74
2022/12/27 05:35:24;;;;;;;12.10;3.30;;;4.00;99.90;;;;;;4914496;29;20049;-74
2022/12/27 05:37:49;;;;;;;11.25;3.17;;;4.00;99.90;;;;;;4902856;29;20056;-73
2022/12/27 05:40:15;;;;;;;14.93;3.78;;;4.00;99.90;;;;;;4886169;29;20505;-73
2022/12/27 05:42:41;;;;;;;15.55;4.18;;;4.00;99.90;;;;;;4902756;29;20044;-73
2022/12/27 05:45:07;;;;;;;11.55;3.35;;;4.10;99.90;;;;;;4886544;29;20063;-73
2022/12/27 05:47:33;;;;;;;15.90;3.90;;;4.00;99.90;;;;;;4903668;29;20067;-73
2022/12/27 05:49:58;;;;;;;14.35;3.78;;;4.00;99.90;;;;;;4883816;29;20044;-74
2022/12/27 05:52:24;;;;;;;14.45;3.65;;;4.20;99.90;;;;;;4897046;29;20052;-73
2022/12/27 05:54:50;;;;;;;13.50;3.85;;;4.30;99.90;;;;;;4901777;29;20132;-73
2022/12/27 05:57:15;;;;;;;12.35;3.88;;;3.90;99.90;;;;;;4898110;29;20512;-74
2022/12/27 05:59:41;;;;;;;13.65;3.78;;;3.90;99.90;;;;;;4906948;29;20079;-73
2022/12/27 06:02:07;;;;;;;16.08;4.22;;;3.80;99.90;;;;;;4901090;29;20052;-73
2022/12/27 06:04:32;;;;;;;15.20;3.63;;;3.80;99.90;;;;;;4907905;29;20044;-73
2022/12/27 06:06:58;;;;;;;15.73;3.70;;;3.90;99.90;;;;;;4897887;29;20057;-73
2022/12/27 06:09:25;;;;;;;12.68;3.55;;;3.80;99.90;;;;;;4898401;29;20074;-73
2022/12/27 06:11:51;;;;;;;16.58;3.42;;;3.90;99.90;;;;;;4911480;29;20040;-74
2022/12/27 06:14:16;;;;;;;13.65;3.60;;;3.80;99.90;;;;;;4887629;29;20052;-73
2022/12/27 06:16:42;;;;;;;13.25;3.60;;;3.80;99.90;;;;;;4905729;29;20139;-73
2022/12/27 06:19:08;;;;;;;13.65;3.53;;;3.70;99.90;;;;;;4899910;29;20048;-73
2022/12/27 06:21:34;;;;;;;15.68;3.63;;;3.80;99.90;;;;;;4899855;29;20048;-74
2022/12/27 06:23:59;;;;;;;12.10;3.70;;;3.80;99.90;;;;;;4881562;29;20100;-73
2022/12/27 06:26:27;;;;;;;13.00;3.20;;;3.80;99.90;;;;;;4898706;29;20109;-74
2022/12/27 06:28:54;;;;;;;10.95;3.42;;;3.80;99.90;;;;;;4898711;29;20061;-74
2022/12/27 06:31:21;;;;;;;15.68;3.50;;;3.90;99.90;;;;;;4885504;29;20083;-74
2022/12/27 06:33:48;;;;;;;12.40;3.47;;;3.90;99.90;;;;;;4914736;29;20052;-74
2022/12/27 06:36:17;;;;;;;12.27;3.20;;;3.90;99.90;;;;;;4908492;29;20131;-74
2022/12/27 06:38:43;;;;;;;13.05;2.90;;;3.90;99.90;;;;;;4895933;29;20107;-74
2022/12/27 06:41:12;;;;;;;14.15;3.05;;;3.90;99.90;;;;;;4898514;29;20076;-74
2022/12/27 06:43:38;;;;;;;13.60;3.00;;;4.10;99.90;;;;;;4907334;29;20049;-73
2022/12/27 06:46:08;;;;;;;12.82;2.83;;;4.00;99.90;;;;;;4905063;29;20056;-74
2022/12/27 06:48:34;;;;;;;11.43;2.90;;;5.10;99.90;;;;;;4911502;29;20040;-74
2022/12/27 06:51:03;;;;;;;11.82;2.70;;;4.10;99.90;;;;;;4914699;29;20484;-73
2022/12/27 06:53:28;;;;;;;10.60;2.72;;;4.10;99.90;;;;;;4911882;29;20095;-74
2022/12/27 06:55:54;;;;;;;12.88;2.95;;;4.10;99.90;;;;;;4898595;29;20088;-73
2022/12/27 06:58:20;;;;;;;13.90;2.63;;;4.70;99.90;;;;;;4900177;29;20472;-73
2022/12/27 07:00:46;;;;;;;12.43;2.55;;;4.20;99.90;;;;;;4904202;29;20044;-74
2022/12/27 07:03:11;;;;;;;10.85;2.55;;;4.10;99.90;;;;;;4907029;29;20732;-73
2022/12/27 07:05:37;;;;;;;10.80;2.80;;;4.40;99.90;;;;;;4910393;29;20079;-74
2022/12/27 07:08:04;;;;;;;13.55;2.95;;;4.10;99.90;;;;;;4914393;29;20048;-73
2022/12/27 07:10:30;;;;;;;11.55;3.00;;;4.10;99.90;;;;;;4905092;29;20056;-73
2022/12/27 07:12:56;;;;;;;10.65;2.80;;;4.10;99.90;;;;;;4903881;29;20601;-73
2022/12/27 07:15:22;;;;;;;12.50;3.47;;;4.10;99.90;;;;;;4914844;29;20059;-73
2022/12/27 07:17:48;;;;;;;15.48;3.70;;;4.20;99.90;;;;;;4905592;29;20404;-74
2022/12/27 07:20:13;;;;;;;15.45;3.75;;;5.10;99.90;;;;;;4908746;29;20044;-73
2022/12/27 07:22:39;;;;;;;14.50;4.15;;;4.10;99.90;;;;;;4913301;29;20123;-73
2022/12/27 07:25:05;;;;;;;16.35;4.30;;;4.30;99.90;;;;;;4924007;29;20178;-74
2022/12/27 07:27:35;;;;;;;13.15;3.70;;;3.90;99.90;;;;;;4928851;29;20051;-73
2022/12/27 07:30:01;;;;;;;15.15;4.15;;;3.90;99.90;;;;;;4909180;29;20122;-74
2022/12/27 07:32:27;;;;;;;13.48;4.03;;;3.90;99.90;;;;;;4910972;29;20051;-75
2022/12/27 07:34:53;;;;;;;13.02;4.20;;;3.80;99.90;;;;;;4916085;29;20052;-74
2022/12/27 07:37:19;;;;;;;14.07;4.28;;;3.90;99.90;;;;;;4913463;29;20103;-74
2022/12/27 07:39:45;;;;;;;17.23;4.20;;;3.80;99.90;;;;;;4913351;29;20404;-74
2022/12/27 07:42:10;;;;;;;12.98;4.30;;;3.80;99.90;;;;;;4902390;29;20127;-73
2022/12/27 07:44:36;;;;;;;16.20;4.90;;;3.70;99.90;;;;;;4915594;29;20048;-73
2022/12/27 07:47:02;;;;;;;14.55;4.75;;;3.80;99.90;;;;;;4902628;29;20090;-74
2022/12/27 07:49:28;;;;;;;15.50;4.90;;;3.60;99.90;;;;;;4924995;29;20039;-74
2022/12/27 07:51:54;;;;;;;17.95;5.80;;;3.60;99.90;;;;;;4913544;29;20052;-74
2022/12/27 07:54:19;;;;;;;13.23;4.85;;;3.70;99.90;;;;;;4917854;29;20048;-74
2022/12/27 07:56:45;;;;;;;18.08;5.40;;;3.60;99.90;;;;;;4906953;29;20488;-74
2022/12/27 07:59:12;;;;;;;15.80;5.10;;;3.60;99.90;;;;;;4941903;29;20052;-74
2022/12/27 08:04:23;;;;;;;16.85;5.22;;;3.60;99.90;;;;;;4918421;29;20051;-73
2022/12/27 08:06:49;;;;;;;14.95;5.00;;;3.60;99.90;;;;;;4903044;29;20052;-74
2022/12/27 08:09:19;;;;;;;14.50;4.93;;;3.60;99.90;;;;;;4901153;29;20078;-73
2022/12/27 08:11:45;;;;;;;14.82;4.70;;;3.50;99.90;;;;;;4919111;29;20122;-74
2022/12/27 08:14:10;;;;;;;13.93;4.63;;;3.50;99.90;;;;;;4935439;29;20195;-74
2022/12/27 08:16:36;;;;;;;12.68;4.60;;;3.50;99.90;;;;;;4918680;29;20054;-74
2022/12/27 08:19:02;;;;;;;16.63;5.00;;;3.40;99.90;;;;;;4902998;29;20150;-74
2022/12/27 08:21:27;;;;;;;16.38;4.57;;;3.50;99.90;;;;;;4918338;29;20080;-74
2022/12/27 08:23:53;;;;;;;11.82;4.28;;;3.50;99.90;;;;;;4917810;29;20051;-73
2022/12/27 08:26:19;;;;;;;16.42;5.00;;;3.50;99.90;;;;;;4918385;29;20048;-73
2022/12/27 08:28:45;;;;;;;14.82;4.70;;;3.60;99.90;;;;;;4903163;29;20070;-73
2022/12/27 08:31:12;;;;;;;15.95;4.40;;;3.50;99.90;;;;;;4922158;29;20087;-74
2022/12/27 08:33:40;;;;;;;13.68;4.35;;;3.60;99.90;;;;;;4921320;29;20400;-73
2022/12/27 08:36:08;;;;;;;14.38;4.70;;;3.60;99.90;;;;;;4918250;29;20138;-73
2022/12/27 08:38:34;;;;;;;17.83;5.30;;;3.60;99.90;;;;;;4921085;29;20558;-73
2022/12/27 08:41:00;;;;;;;17.30;4.97;;;3.60;99.90;;;;;;4922131;29;20048;-73
2022/12/27 08:43:25;;;;;;;14.75;5.03;;;3.70;99.90;;;;;;4918905;29;20480;-73
2022/12/27 08:45:51;;;;;;;15.82;4.88;;;3.70;99.90;;;;;;4938933;29;20169;-74
2022/12/27 08:48:17;;;;;;;16.77;4.70;;;4.20;99.90;;;;;;4920842;29;20044;-73
2022/12/27 08:50:42;;;;;;;17.35;4.72;;;3.90;99.90;;;;;;4906461;29;20051;-73
2022/12/27 08:53:09;;;;;;;13.52;4.47;;;4.00;99.90;;;;;;4905180;29;20440;-73
2022/12/27 08:55:35;;;;;;;14.32;4.63;;;4.10;99.90;;;;;;4905953;29;20047;-73
2022/12/27 08:58:04;;;;;;;13.25;4.88;;;4.20;99.90;;;;;;4918623;29;20114;-73
2022/12/27 09:00:30;;;;;;;17.77;5.13;;;4.30;99.90;;;;;;4916946;29;20056;-73
2022/12/27 09:02:56;;;;;;;15.10;4.93;;;4.30;99.90;;;;;;4921365;29;20083;-73
2022/12/27 09:05:23;;;;;;;14.25;4.70;;;4.50;99.90;;;;;;4905595;29;20051;-73
2022/12/27 09:07:49;;;;;;;14.07;4.82;;;4.60;99.90;;;;;;4904423;29;20054;-74
2022/12/27 09:10:15;;;;;;;12.18;4.95;;;4.70;99.90;;;;;;4920081;29;20063;-73
2022/12/27 09:12:41;;;;;;;11.90;4.18;;;4.70;99.90;;;;;;4933470;29;20043;-74
2022/12/27 09:15:08;;;;;;;17.95;4.80;;;4.70;99.90;;;;;;4902574;29;20087;-74
2022/12/27 09:17:34;;;;;;;13.40;4.50;;;4.70;99.90;;;;;;4921209;29;20485;-73
2022/12/27 09:19:59;;;;;;;14.68;4.60;;;4.80;99.90;;;;;;4920644;29;20047;-73
2022/12/27 09:22:27;;;;;;;13.50;4.63;;;4.80;99.90;;;;;;4904575;29;20139;-74
2022/12/27 09:24:52;;;;;;;14.70;4.70;;;4.80;99.90;;;;;;4921154;29;20047;-74
2022/12/27 09:27:19;;;;;;;15.63;4.50;;;4.80;99.90;;;;;;4936589;29;20054;-73
2022/12/27 09:29:44;;;;;;;14.98;4.63;;;4.80;99.90;;;;;;4903549;29;20071;-73
2022/12/27 09:32:10;;;;;;;15.45;5.22;;;4.90;99.90;;;;;;4938006;29;20056;-73
2022/12/27 09:34:36;;;;;;;12.05;4.38;;;4.90;99.90;;;;;;4920895;29;20051;-73
2022/12/27 09:37:02;;;;;;;15.20;5.03;;;5.00;99.90;;;;;;4918368;29;20052;-74
2022/12/27 09:39:27;;;;;;;12.73;4.60;;;5.00;99.90;;;;;;4917507;29;20052;-74
2022/12/27 09:42:20;;;;;;;13.48;4.90;;;5.00;99.90;;;;;;4933382;29;20043;-74
2022/12/27 09:44:54;;;;;;;14.23;4.65;;;5.00;99.90;;;;;;4917577;29;20051;-74
2022/12/27 09:47:57;;;;;;;16.70;4.90;;;5.10;99.90;;;;;;4929335;29;20515;-74
2022/12/27 09:50:44;;;;;;;13.80;4.45;;;5.10;99.90;;;;;;4918731;29;20059;-73
2022/12/27 09:53:20;;;;;;;12.63;4.28;;;5.20;99.90;;;;;;4918345;29;20062;-74
2022/12/27 09:55:47;;;;;;;16.13;4.63;;;5.30;99.90;;;;;;4916418;29;20063;-74
2022/12/27 09:58:37;;;;;;;13.57;4.47;;;5.30;99.90;;;;;;4911951;29;20106;-73
2022/12/27 10:01:17;;;;;;;16.10;4.90;;;5.40;99.90;;;;;;4892061;29;20056;-73
2022/12/27 10:03:43;;;;;;;12.82;4.70;;;5.40;99.90;;;;;;4920279;29;20059;-73
2022/12/27 10:06:23;;;;;;;14.93;4.70;;;5.50;99.90;;;;;;4920452;29;20472;-73
2022/12/27 10:09:09;;;;;;;13.27;4.80;;;5.50;99.90;;;;;;4903921;29;20048;-74
2022/12/27 10:12:05;;;;;;;18.10;4.60;;;5.60;99.90;;;;;;4933014;29;20110;-74
2022/12/27 10:14:58;;;;;;;15.95;4.95;;;5.70;99.90;;;;;;4920260;29;20126;-73
2022/12/27 10:17:51;;;;;;;13.77;4.50;;;5.70;99.90;;;;;;4904578;29;20098;-73
2022/12/27 10:20:49;;;;;;;16.38;4.78;;;5.70;99.90;;;;;;4919958;29;20055;-73
2022/12/27 10:23:21;;;;;;;15.57;4.72;;;5.70;99.90;;;;;;4919393;29;20062;-73
2022/12/27 10:25:53;;;;;;;14.98;4.50;;;5.70;99.90;;;;;;4933558;29;20067;-73
2022/12/27 10:28:27;;;;;;;;;;;5.80;99.90;;;;;;4912581;29;20131;-74
2022/12/27 10:30:54;;;;;;;12.55;4.53;;;5.80;99.90;;;;;;4911965;29;20001;-73
2022/12/27 10:33:25;;;;;;;15.95;4.93;;;5.90;99.90;;;;;;4908145;29;20408;-73
2022/12/27 10:35:52;;;;;;;19.10;4.28;;;5.90;99.90;;;;;;4917307;29;20052;-74
2022/12/27 10:38:18;;;;;;;13.45;4.10;;;5.90;99.90;;;;;;4915805;29;20134;-74
2022/12/27 10:41:19;;;;;;;15.27;3.97;;;5.90;99.90;;;;;;4904291;29;20048;-74
2022/12/27 10:43:50;;;;;;;16.35;3.97;;;5.90;99.90;;;;;;4934295;29;20059;-74
2022/12/27 10:46:19;;;;;;;17.15;4.28;;;5.90;99.90;;;;;;4916356;29;20056;-74
2022/12/27 10:48:57;;;;;;;17.08;4.05;;;5.90;99.90;;;;;;4918266;29;20428;-74
2022/12/27 10:51:32;;;;;;;13.45;4.18;;;6.00;99.90;;;;;;4919724;29;20047;-74
2022/12/27 10:54:40;;;;;;;14.00;4.00;;;5.90;99.90;;;;;;4915037;29;20048;-74
2022/12/27 10:57:33;;;;;;;13.80;3.83;;;5.90;99.90;;;;;;4898835;29;20127;-74
2022/12/27 11:00:19;;;;;;;13.88;4.25;;;5.80;99.90;;;;;;4910883;29;20059;-74
2022/12/27 11:02:53;;;;;;;13.60;3.67;;;5.70;99.90;;;;;;4916603;29;20134;-74
2022/12/27 11:05:27;;;;;;;14.02;4.22;;;5.70;99.90;;;;;;4910511;29;20051;-74
2022/12/27 11:07:53;;;;;;;15.85;3.95;;;5.70;99.90;;;;;;4915552;29;20184;-74
2022/12/27 11:10:22;;;;;;;14.48;3.90;;;5.80;99.90;;;;;;4913860;29;20083;-74
2022/12/27 11:13:00;;;;;;;15.43;4.00;;;5.90;99.90;;;;;;4918814;29;20472;-74
2022/12/27 11:15:29;;;;;;;13.43;3.85;;;5.90;99.90;;;;;;4918931;29;20168;-74
2022/12/27 11:18:03;;;;;;;11.75;3.72;;;6.00;99.90;;;;;;4919089;29;20051;-74
2022/12/27 11:20:51;;;;;;;12.73;3.40;;;6.10;99.90;;;;;;4919159;29;20054;-75
2022/12/27 11:23:20;;;;;;;12.07;3.42;;;6.10;99.90;;;;;;4918450;29;20056;-73
2022/12/27 11:26:00;;;;;;;12.50;3.70;;;6.10;99.90;;;;;;4919108;29;20055;-74
2022/12/27 11:28:35;;;;;;;14.38;3.78;;;6.10;99.90;;;;;;4918244;29;20052;-73
2022/12/27 11:31:11;;;;;;;13.27;3.25;;;6.10;99.90;;;;;;4918085;29;20058;-74
2022/12/27 11:33:52;;;;;;;11.00;3.08;;;6.10;99.90;;;;;;4909665;29;20070;-74
2022/12/27 11:36:32;;;;;;;11.15;3.10;;;6.10;99.90;;;;;;4933895;29;20074;-74
2022/12/27 11:38:59;;;;;;;12.40;3.75;;;6.10;99.90;;;;;;4918254;29;20090;-74
2022/12/27 11:41:42;;;;;;;11.57;2.75;;;6.10;99.90;;;;;;4918654;29;20381;-74
2022/12/27 11:44:23;;;;;;;13.50;3.38;;;6.20;99.90;;;;;;4916609;29;20058;-74
2022/12/27 11:47:00;;;;;;;14.80;3.33;;;6.20;99.90;;;;;;4918297;29;20058;-74
2022/12/27 11:49:34;;;;;;;14.63;3.70;;;6.20;99.90;;;;;;4919012;29;20123;-73
2022/12/27 11:52:12;;;;;;;17.58;3.50;;;6.30;99.90;;;;;;4917630;29;20408;-74
2022/12/27 11:55:13;;;;;;;14.00;3.30;;;6.30;99.90;;;;;;4919187;29;20103;-73
2022/12/27 11:58:00;;;;;;;13.15;3.10;;;6.30;99.90;;;;;;4915913;29;20056;-73
2022/12/27 12:00:32;;;;;;;13.35;3.38;;;6.40;99.90;;;;;;4913459;29;20063;-74
2022/12/27 12:03:23;;;;;;;11.80;3.05;;;6.40;99.90;;;;;;4918489;29;20048;-75
2022/12/27 12:06:17;;;;;;;12.85;3.28;;;6.40;99.90;;;;;;4939015;29;20055;-73
2022/12/27 12:09:09;;;;;;;15.75;3.30;;;6.50;99.90;;;;;;4920888;29;20438;-74
2022/12/27 12:12:06;;;;;;;12.43;3.10;;;6.40;99.90;;;;;;4922945;29;20066;-74
2022/12/27 12:14:50;;;;;;;11.20;3.17;;;6.40;99.90;;;;;;4908998;29;20044;-74
2022/12/27 12:17:19;;;;;;;11.88;3.13;;;6.50;99.90;;;;;;4922547;29;20087;-74
2022/12/27 12:20:23;;;;;;;11.20;3.30;;;6.40;99.90;;;;;;4939235;29;20118;-74
2022/12/27 12:23:09;;;;;;;12.77;3.30;;;6.40;99.90;;;;;;4904146;29;20083;-74
2022/12/27 12:25:54;;;;;;;13.55;3.42;;;6.40;99.90;;;;;;4921943;29;20531;-75
2022/12/27 12:28:43;;;;;;;11.13;3.35;;;6.40;99.90;;;;;;4938429;29;20472;-74
2022/12/27 12:31:32;;;;;;;12.30;3.47;;;6.30;99.90;;;;;;4906422;29;20055;-74
2022/12/27 12:34:16;;;;;;;15.65;4.10;;;6.40;99.90;;;;;;4927293;29;20729;-74
2022/12/27 12:37:21;;;;;;;11.73;3.88;;;6.40;99.90;;;;;;4922104;29;20086;-74
2022/12/27 12:39:59;;;;;;;13.55;4.13;;;6.40;99.90;;;;;;4906138;29;20067;-74
2022/12/27 12:42:49;;;;;;;16.23;4.53;;;6.40;99.90;;;;;;4919877;29;20436;-74
2022/12/27 12:45:26;;;;;;;14.18;4.15;;;6.40;99.90;;;;;;4933304;29;20052;-74
2022/12/27 12:48:21;;;;;;;11.85;4.18;;;6.40;99.90;;;;;;4919965;29;20075;-74
2022/12/27 12:51:24;;;;;;;13.93;4.88;;;6.30;99.90;;;;;;4925471;29;20138;-74
2022/12/27 12:54:02;;;;;;;15.60;5.22;;;6.20;99.90;;;;;;4919613;29;20052;-73
2022/12/27 12:57:09;;;;;;;15.32;5.00;;;6.20;99.90;;;;;;4904377;29;20056;-73
2022/12/27 12:59:58;;;;;;;14.63;4.97;;;6.30;99.90;;;;;;4900058;29;20064;-74
2022/12/27 13:02:42;;;;;;;14.30;5.32;;;6.30;99.90;;;;;;4912331;29;20130;-74
2022/12/27 13:05:16;;;;;;;13.90;5.43;;;6.40;99.90;;;;;;4930124;29;20040;-74
2022/12/27 13:07:53;;;;;;;14.55;6.03;;;6.30;99.90;;;;;;4905245;29;20065;-74
2022/12/27 13:10:21;;;;;;;16.13;6.32;;;6.30;99.90;;;;;;4913285;29;20052;-74
2022/12/27 13:13:00;;;;;;;18.27;7.05;;;6.30;99.90;;;;;;4931055;29;20047;-73
2022/12/27 13:15:50;;;;;;;17.38;7.07;;;6.30;99.90;;;;;;4910900;29;20055;-73
2022/12/27 13:18:43;;;;;;;16.40;7.25;;;6.30;99.90;;;;;;4920587;29;20043;-74
2022/12/27 13:21:26;;;;;;;16.35;8.02;;;6.30;99.90;;;;;;4927780;29;20495;-74
2022/12/27 13:23:57;;;;;;;17.63;8.27;;;6.30;99.90;;;;;;4920483;29;20369;-74
2022/12/27 13:26:40;;;;;;;20.42;9.30;;;6.30;99.90;;;;;;4904883;29;20059;-73
2022/12/27 13:29:24;;;;;;;17.23;9.23;;;6.40;99.90;;;;;;4909492;29;20138;-74
2022/12/27 13:32:22;;;;;;;14.75;8.25;;;6.40;99.90;;;;;;4927038;29;20118;-74
2022/12/27 13:35:06;;;;;;;19.95;8.55;;;6.40;99.90;;;;;;4918674;29;20059;-74
2022/12/27 13:37:45;;;;;;;17.85;8.82;;;6.30;99.90;;;;;;4920338;29;20492;-74
2022/12/27 13:40:33;;;;;;;15.02;8.18;;;6.30;99.90;;;;;;4924703;29;20079;-74
2022/12/27 13:43:17;;;;;;;14.70;8.52;;;6.30;99.90;;;;;;4903937;29;20091;-74
2022/12/27 13:45:50;;;;;;;15.95;8.85;;;6.30;99.90;;;;;;4905334;29;20051;-74
2022/12/27 13:48:37;;;;;;;19.27;9.70;;;6.40;99.90;;;;;;4919741;29;20143;-73
2022/12/27 13:51:10;;;;;;;19.00;11.02;;;6.30;99.90;;;;;;4904915;29;20047;-74
2022/12/27 13:53:44;;;;;;;20.60;10.75;;;6.30;99.90;;;;;;4919738;29;20058;-73
2022/12/27 13:56:38;;;;;;;22.83;11.82;;;6.30;99.90;;;;;;4920300;29;20523;-74
2022/12/27 13:59:22;;;;;;;19.50;11.55;;;6.30;99.90;;;;;;4904036;29;20094;-74
2022/12/27 14:02:06;;;;;;;19.58;12.40;;;6.30;99.90;;;;;;4927550;29;20050;-74
2022/12/27 14:05:03;;;;;;;19.92;11.32;;;6.30;99.90;;;;;;4920902;29;20056;-74
2022/12/27 14:08:03;;;;;;;22.23;12.73;;;6.30;99.90;;;;;;4915974;29;20123;-74
2022/12/27 14:10:38;;;;;;;21.95;12.55;;;6.30;99.90;;;;;;4929804;29;20138;-75
2022/12/27 14:13:05;;;;;;;19.17;12.25;;;6.30;99.90;;;;;;4916498;29;20535;-74
2022/12/27 14:16:03;;;;;;;20.65;11.80;;;6.30;99.90;;;;;;4920067;29;20055;-74
2022/12/27 14:18:47;;;;;;;18.45;12.38;;;6.20;99.90;;;;;;4923489;29;20055;-74
2022/12/27 14:21:33;;;;;;;20.50;12.68;;;6.20;99.90;;;;;;4916727;29;20106;-73
2022/12/27 14:24:41;;;;;;;20.00;13.13;;;6.10;99.90;;;;;;4909237;29;20094;-74
2022/12/27 14:27:49;;;;;;;21.52;13.38;;;6.10;99.90;;;;;;4913783;29;20070;-74
2022/12/27 14:30:59;;;;;;;21.98;13.15;;;6.10;99.90;;;;;;4888878;29;20051;-74
2022/12/27 14:33:54;;;;;;;21.92;13.95;;;6.10;99.90;;;;;;4914178;29;20056;-74
2022/12/27 14:36:43;;;;;;;22.20;13.60;;;6.00;99.90;;;;;;4908663;29;20167;-74
2022/12/27 14:39:36;;;;;;;21.83;14.50;;;5.90;99.90;;;;;;4916829;29;20054;-74
2022/12/27 14:42:40;;;;;;;23.13;14.48;;;5.90;99.90;;;;;;4913305;29;20050;-74
2022/12/27 14:45:17;;;;;;;26.35;14.65;;;5.80;99.90;;;;;;4925521;29;20548;-74
2022/12/27 14:48:23;;;;;;;24.40;15.32;;;5.70;99.90;;;;;;4914465;29;20052;-74
2022/12/27 14:51:26;;;;;;;28.23;15.85;;;5.70;99.90;;;;;;4926726;29;20507;-74
2022/12/27 14:54:21;;;;;;;23.67;15.75;;;5.60;99.90;;;;;;4906354;29;20079;-74
2022/12/27 14:57:19;;;;;;;27.85;17.23;;;5.60;99.90;;;;;;4910709;29;20056;-74
2022/12/27 15:00:09;;;;;;;26.95;16.75;;;5.60;99.90;;;;;;4909304;29;20086;-74
2022/12/27 15:02:56;;;;;;;22.58;16.45;;;5.50;99.90;;;;;;4917303;29;20055;-75
2022/12/27 15:05:37;;;;;;;24.95;15.55;;;5.50;99.90;;;;;;4919795;29;20074;-74
2022/12/27 15:08:21;;;;;;;23.65;15.30;;;5.50;99.90;;;;;;4902687;29;20075;-74
2022/12/27 15:11:17;;;;;;;28.25;16.80;;;5.50;99.90;;;;;;4933092;29;20047;-74